Terminal Aerodrome Forecast
Issued by NWS

Home | Current Version | Previous Version | Text Only | Print | Product List | Glossary On
Versions: 1 2 3 4 5 6 7 8 9 10 11 12 13 14 15 16 17 18
000
FTUS46 KEKA 012300
TAFCEC
TAF
KCEC 012339Z 0200/0224 17008KT P6SM BKN005
     FM020400 18004KT 2SM BR OVC003
     FM020800 VRB03KT 1/2SM FG VV002
     FM021700 18004KT 3SM BR BKN003
     FM022100 20008KT P6SM OVC005=

USA.gov is the U.S. government's official web portal to all federal, state and local government web resources and services.